createdAt,value
2019-03-24T00:00:31.286Z,7.75
2019-03-24T00:01:40.649Z,7.70
2019-03-24T00:02:32.258Z,7.77
2019-03-24T00:03:31.357Z,7.70
2019-03-24T00:04:31.284Z,7.73
2019-03-24T00:05:31.236Z,7.67
2019-03-24T00:06:31.208Z,7.63
2019-03-24T00:07:31.209Z,7.66
2019-03-24T00:08:31.194Z,7.61
2019-03-24T00:09:31.187Z,7.61
2019-03-24T00:10:31.178Z,7.70
2019-03-24T00:11:31.196Z,7.63
2019-03-24T00:12:31.155Z,7.54
2019-03-24T00:13:31.152Z,7.58
2019-03-24T00:14:31.142Z,7.47
2019-03-24T00:15:31.146Z,7.60
2019-03-24T00:16:31.108Z,7.50
2019-03-24T00:17:31.115Z,7.56
2019-03-24T00:18:31.161Z,7.61
2019-03-24T00:19:31.073Z,7.54
2019-03-24T00:20:31.076Z,7.66
2019-03-24T00:21:31.052Z,7.61
2019-03-24T00:22:31.058Z,7.51
2019-03-24T00:23:31.030Z,7.57
2019-03-24T00:24:31.031Z,7.58
2019-03-24T00:25:31.020Z,7.66
2019-03-24T00:26:31.005Z,7.67
2019-03-24T00:27:30.996Z,7.72
2019-03-24T00:28:30.985Z,7.61
2019-03-24T00:29:30.972Z,7.67
2019-03-24T00:30:30.970Z,7.77
2019-03-24T00:31:30.970Z,7.61
2019-03-24T00:32:30.967Z,7.79
2019-03-24T00:33:31.088Z,7.73
2019-03-24T00:34:30.916Z,7.72
2019-03-24T00:35:30.906Z,7.75
2019-03-24T00:36:30.899Z,7.73
2019-03-24T00:37:30.882Z,7.75
2019-03-24T00:38:30.898Z,7.83
2019-03-24T00:39:30.874Z,7.83
2019-03-24T00:40:30.853Z,7.87
2019-03-24T00:41:30.843Z,7.76
2019-03-24T00:42:30.825Z,7.82
2019-03-24T00:43:30.823Z,7.85
2019-03-24T00:44:30.805Z,7.82
2019-03-24T00:45:36.755Z,7.80
2019-03-24T00:46:31.788Z,7.82
2019-03-24T00:47:30.774Z,7.87
2019-03-24T00:48:30.771Z,7.85
2019-03-24T00:49:30.799Z,7.75
2019-03-24T00:50:30.746Z,7.79
2019-03-24T00:51:30.730Z,7.76
2019-03-24T00:52:30.752Z,7.75
2019-03-24T00:53:30.724Z,7.77
2019-03-24T00:54:30.700Z,7.76
2019-03-24T00:55:32.240Z,7.77
2019-03-24T00:56:30.680Z,7.77
2019-03-24T00:57:30.684Z,7.69
2019-03-24T00:58:30.675Z,7.61
2019-03-24T00:59:30.658Z,7.67
2019-03-24T01:00:30.654Z,7.73
2019-03-24T01:01:30.641Z,7.61
2019-03-24T01:02:30.620Z,7.66
2019-03-24T01:03:30.615Z,7.61
2019-03-24T01:04:30.599Z,7.63
2019-03-24T01:05:30.585Z,7.61
2019-03-24T01:06:30.584Z,7.60
2019-03-24T01:07:30.578Z,7.60
2019-03-24T01:08:30.570Z,7.69
2019-03-24T01:09:30.572Z,7.69
2019-03-24T01:10:30.556Z,7.69
2019-03-24T01:11:30.526Z,7.57
2019-03-24T01:12:30.515Z,7.60
2019-03-24T01:13:30.520Z,7.51
2019-03-24T01:14:30.487Z,7.69
2019-03-24T01:15:30.490Z,7.54
2019-03-24T01:16:30.515Z,7.73
2019-03-24T01:17:30.471Z,7.58
2019-03-24T01:18:30.470Z,7.54
2019-03-24T01:19:30.435Z,7.63
2019-03-24T01:20:30.430Z,7.60
2019-03-24T01:21:30.412Z,7.70
2019-03-24T01:22:30.414Z,7.66
2019-03-24T01:23:30.429Z,7.50
2019-03-24T01:24:30.397Z,7.53
2019-03-24T01:25:30.445Z,7.58
2019-03-24T01:26:30.361Z,7.57
2019-03-24T01:27:30.359Z,7.58
2019-03-24T01:28:30.342Z,7.57
2019-03-24T01:29:30.333Z,7.51
2019-03-24T01:30:30.321Z,7.57
2019-03-24T01:31:30.307Z,7.60
2019-03-24T01:32:30.305Z,7.43
2019-03-24T01:33:30.291Z,7.51
2019-03-24T01:34:30.759Z,7.57
2019-03-24T01:35:30.283Z,7.61
2019-03-24T01:36:30.257Z,7.53
2019-03-24T01:37:30.244Z,7.63
2019-03-24T01:38:30.249Z,7.51
2019-03-24T01:39:30.231Z,7.54
2019-03-24T01:40:30.217Z,7.57
2019-03-24T01:41:30.208Z,7.54
2019-03-24T01:42:30.198Z,7.57
2019-03-24T01:43:30.201Z,7.58
2019-03-24T01:44:30.177Z,7.51
2019-03-24T01:45:30.172Z,7.61
2019-03-24T01:46:30.155Z,7.58
2019-03-24T01:47:30.144Z,7.58
2019-03-24T01:48:30.137Z,7.54
2019-03-24T01:49:30.129Z,7.56
2019-03-24T01:50:30.111Z,7.56
2019-03-24T01:51:30.103Z,7.50
2019-03-24T01:52:30.111Z,7.50
2019-03-24T01:53:30.092Z,7.51
2019-03-24T01:54:30.170Z,7.51
2019-03-24T01:55:30.052Z,7.48
2019-03-24T01:56:30.047Z,7.48
2019-03-24T01:57:30.031Z,7.48
2019-03-24T01:58:30.033Z,7.45
2019-03-24T01:59:30.038Z,7.35
2019-03-24T02:00:30.010Z,7.40
2019-03-24T02:01:29.989Z,7.35
2019-03-24T02:02:30.036Z,7.43
2019-03-24T02:03:29.979Z,7.39
2019-03-24T02:04:29.971Z,7.38
2019-03-24T02:05:29.952Z,7.33
2019-03-24T02:06:29.939Z,7.40
2019-03-24T02:07:29.936Z,7.31
2019-03-24T02:08:29.922Z,7.29
2019-03-24T02:09:29.942Z,7.28
2019-03-24T02:10:29.902Z,7.21
2019-03-24T02:11:29.943Z,7.24
2019-03-24T02:12:29.877Z,7.13
2019-03-24T02:13:29.868Z,7.20
2019-03-24T02:14:29.875Z,7.17
2019-03-24T02:15:29.853Z,7.20
2019-03-24T02:16:29.841Z,7.17
2019-03-24T02:17:29.825Z,7.13
2019-03-24T02:18:29.818Z,7.13
2019-03-24T02:19:29.807Z,7.15
2019-03-24T02:20:29.847Z,7.11
2019-03-24T02:21:29.793Z,7.10
2019-03-24T02:22:30.748Z,7.11
2019-03-24T02:23:29.764Z,7.11
2019-03-24T02:24:29.760Z,7.03
2019-03-24T02:25:29.746Z,7.06
2019-03-24T02:26:29.725Z,6.97
2019-03-24T02:27:29.723Z,6.95
2019-03-24T02:28:29.723Z,6.99
2019-03-24T02:29:29.722Z,6.97
2019-03-24T02:30:29.694Z,6.99
2019-03-24T02:31:29.672Z,6.97
2019-03-24T02:32:29.690Z,6.99
2019-03-24T02:33:29.657Z,7.03
2019-03-24T02:34:29.659Z,6.95
2019-03-24T02:35:29.642Z,7.00
2019-03-24T02:36:29.626Z,6.97
2019-03-24T02:37:29.611Z,6.89
2019-03-24T02:38:29.603Z,6.88
2019-03-24T02:39:29.620Z,6.87
2019-03-24T02:40:29.609Z,6.85
2019-03-24T02:41:29.574Z,6.92
2019-03-24T02:42:29.567Z,6.88
2019-03-24T02:43:29.548Z,6.85
2019-03-24T02:44:29.549Z,6.79
2019-03-24T02:45:29.589Z,6.75
2019-03-24T02:46:29.514Z,6.85
2019-03-24T02:47:29.582Z,6.72
2019-03-24T02:48:29.488Z,6.79
2019-03-24T02:49:29.492Z,6.79
2019-03-24T02:50:29.476Z,6.75
2019-03-24T02:51:29.475Z,6.72
2019-03-24T02:52:29.512Z,6.66
2019-03-24T02:53:29.471Z,6.84
2019-03-24T02:54:29.560Z,6.70
2019-03-24T02:55:29.419Z,6.78
2019-03-24T02:56:29.408Z,6.81
2019-03-24T02:57:29.396Z,6.70
2019-03-24T02:58:29.383Z,6.67
2019-03-24T02:59:29.372Z,6.70
2019-03-24T03:00:29.367Z,6.74
2019-03-24T03:01:29.416Z,6.69
2019-03-24T03:02:29.339Z,6.67
2019-03-24T03:03:29.341Z,6.60
2019-03-24T03:04:29.331Z,6.69
2019-03-24T03:05:29.325Z,6.67
2019-03-24T03:06:29.297Z,6.60
2019-03-24T03:07:29.285Z,6.64
2019-03-24T03:08:29.281Z,6.63
2019-03-24T03:09:29.265Z,6.66
2019-03-24T03:10:29.269Z,6.60
2019-03-24T03:11:29.265Z,6.51
2019-03-24T03:12:29.235Z,6.63
2019-03-24T03:13:29.228Z,6.52
2019-03-24T03:14:29.228Z,6.52
2019-03-24T03:15:29.206Z,6.57
2019-03-24T03:16:38.392Z,6.49
2019-03-24T03:17:30.190Z,6.49
2019-03-24T03:18:29.170Z,6.42
2019-03-24T03:19:29.167Z,6.46
2019-03-24T03:20:29.172Z,6.49
2019-03-24T03:21:29.134Z,6.49
2019-03-24T03:22:29.132Z,6.49
2019-03-24T03:23:29.153Z,6.42
2019-03-24T03:24:29.109Z,6.49
2019-03-24T03:25:29.100Z,6.41
2019-03-24T03:26:29.094Z,6.52
2019-03-24T03:27:29.076Z,6.51
2019-03-24T03:28:29.063Z,6.46
2019-03-24T03:29:29.087Z,6.48
2019-03-24T03:30:29.054Z,6.52
2019-03-24T03:31:29.054Z,6.45
2019-03-24T03:32:29.050Z,6.49
2019-03-24T03:33:29.010Z,6.38
2019-03-24T03:34:29.049Z,6.45
2019-03-24T03:35:28.992Z,6.45
2019-03-24T03:36:29.004Z,6.48
2019-03-24T03:37:29.136Z,6.48
2019-03-24T03:38:28.972Z,6.42
2019-03-24T03:39:29.042Z,6.48
2019-03-24T03:40:28.950Z,6.44
2019-03-24T03:41:28.939Z,6.44
2019-03-24T03:42:28.923Z,6.45
2019-03-24T03:43:28.904Z,6.41
2019-03-24T03:44:29.007Z,6.45
2019-03-24T03:45:28.978Z,6.45
2019-03-24T03:46:28.891Z,6.39
2019-03-24T03:47:28.875Z,6.52
2019-03-24T03:48:28.853Z,6.42
2019-03-24T03:49:28.838Z,6.46
2019-03-24T03:50:28.827Z,6.45
2019-03-24T03:51:28.897Z,6.44
2019-03-24T03:52:28.811Z,6.36
2019-03-24T03:53:28.799Z,6.42
2019-03-24T03:54:28.815Z,6.39
2019-03-24T03:55:28.774Z,6.45
2019-03-24T03:56:28.793Z,6.39
2019-03-24T03:57:28.755Z,6.41
2019-03-24T03:58:28.739Z,6.42
2019-03-24T03:59:28.739Z,6.45
2019-03-24T04:00:28.723Z,6.39
2019-03-24T04:01:28.709Z,6.33
2019-03-24T04:02:28.696Z,6.26
2019-03-24T04:03:28.699Z,6.35
2019-03-24T04:04:28.680Z,6.33
2019-03-24T04:05:28.675Z,6.31
2019-03-24T04:06:28.656Z,6.38
2019-03-24T04:07:28.642Z,6.35
2019-03-24T04:08:28.631Z,6.39
2019-03-24T04:09:28.625Z,6.35
2019-03-24T04:10:28.621Z,6.35
2019-03-24T04:11:28.635Z,6.33
2019-03-24T04:12:28.588Z,6.35
2019-03-24T04:13:28.579Z,6.35
2019-03-24T04:14:28.647Z,6.31
2019-03-24T04:15:28.603Z,6.36
2019-03-24T04:16:28.557Z,6.30
2019-03-24T04:17:28.551Z,6.41
2019-03-24T04:18:28.600Z,6.35
2019-03-24T04:19:28.527Z,6.39
2019-03-24T04:20:28.540Z,6.35
2019-03-24T04:21:28.513Z,6.33
2019-03-24T04:22:28.529Z,6.35
2019-03-24T04:23:28.471Z,6.33
2019-03-24T04:24:28.621Z,6.36
2019-03-24T04:25:28.478Z,6.30
2019-03-24T04:26:28.441Z,6.33
2019-03-24T04:27:28.449Z,6.28
2019-03-24T04:28:28.422Z,6.27
2019-03-24T04:29:28.460Z,6.28
2019-03-24T04:30:28.402Z,6.26
2019-03-24T04:31:28.383Z,6.27
2019-03-24T04:32:28.386Z,6.30
2019-03-24T04:33:28.366Z,6.27
2019-03-24T04:34:28.469Z,6.26
2019-03-24T04:35:28.353Z,6.28
2019-03-24T04:36:28.389Z,6.17
2019-03-24T04:37:28.738Z,6.17
2019-03-24T04:38:28.334Z,6.24
2019-03-24T04:39:28.297Z,6.27
2019-03-24T04:40:28.304Z,6.31
2019-03-24T04:41:28.344Z,6.31
2019-03-24T04:42:28.302Z,6.26
2019-03-24T04:43:28.266Z,6.17
2019-03-24T04:44:28.246Z,6.16
2019-03-24T04:45:28.240Z,6.14
2019-03-24T04:46:28.220Z,6.09
2019-03-24T04:47:28.267Z,6.11
2019-03-24T04:48:28.204Z,6.17
2019-03-24T04:49:28.192Z,6.12
2019-03-24T04:50:28.221Z,6.12
2019-03-24T04:51:28.170Z,6.20
2019-03-24T04:52:28.236Z,6.17
2019-03-24T04:53:28.164Z,6.20
2019-03-24T04:54:28.188Z,6.27
2019-03-24T04:55:28.146Z,6.14
2019-03-24T04:56:28.114Z,6.16
2019-03-24T04:57:28.148Z,6.09
2019-03-24T04:58:28.314Z,6.09
2019-03-24T04:59:28.086Z,6.07
2019-03-24T05:00:28.072Z,6.11
2019-03-24T05:01:28.079Z,6.14
2019-03-24T05:02:28.061Z,6.07
2019-03-24T05:03:28.305Z,6.04
2019-03-24T05:04:28.132Z,6.12
2019-03-24T05:05:28.021Z,6.07
2019-03-24T05:06:28.007Z,6.08
2019-03-24T05:07:28.020Z,6.04
2019-03-24T05:08:27.990Z,6.04
2019-03-24T05:09:27.981Z,6.01
2019-03-24T05:10:27.967Z,6.01
2019-03-24T05:11:27.965Z,5.98
2019-03-24T05:12:27.975Z,6.04
2019-03-24T05:13:27.936Z,5.99
2019-03-24T05:14:28.074Z,5.97
2019-03-24T05:15:27.941Z,5.94
2019-03-24T05:16:27.932Z,5.98
2019-03-24T05:17:27.999Z,5.90
2019-03-24T05:18:27.948Z,5.99
2019-03-24T05:19:27.873Z,5.91
2019-03-24T05:20:27.985Z,5.90
2019-03-24T05:21:27.849Z,5.91
2019-03-24T05:22:27.866Z,5.90
2019-03-24T05:23:27.831Z,5.86
2019-03-24T05:24:27.818Z,5.91
2019-03-24T05:25:27.809Z,5.89
2019-03-24T05:26:27.806Z,5.91
2019-03-24T05:27:27.820Z,5.87
2019-03-24T05:28:28.240Z,5.89
2019-03-24T05:29:27.765Z,5.83
2019-03-24T05:30:27.750Z,5.86
2019-03-24T05:31:27.748Z,5.83
2019-03-24T05:32:27.728Z,5.86
2019-03-24T05:33:27.740Z,5.86
2019-03-24T05:34:27.713Z,5.79
2019-03-24T05:35:27.696Z,5.84
2019-03-24T05:36:27.691Z,5.82
2019-03-24T05:37:27.676Z,5.84
2019-03-24T05:38:28.279Z,5.80
2019-03-24T05:39:27.668Z,5.89
2019-03-24T05:40:27.661Z,5.80
2019-03-24T05:41:27.630Z,5.72
2019-03-24T05:42:27.629Z,5.80
2019-03-24T05:43:27.621Z,5.84
2019-03-24T05:44:27.603Z,5.82
2019-03-24T05:45:27.590Z,5.82
2019-03-24T05:46:27.590Z,5.84
2019-03-24T05:47:36.793Z,5.98
2019-03-24T05:48:28.569Z,5.91
2019-03-24T05:49:27.544Z,5.97
2019-03-24T05:50:27.551Z,5.93
2019-03-24T05:51:27.523Z,5.97
2019-03-24T05:52:27.720Z,5.94
2019-03-24T05:53:27.549Z,5.99
2019-03-24T05:54:27.501Z,6.04
2019-03-24T05:55:27.483Z,6.05
2019-03-24T05:56:27.472Z,5.99
2019-03-24T05:57:27.477Z,6.04
2019-03-24T05:58:27.466Z,6.04
2019-03-24T05:59:27.620Z,6.07
2019-03-24T06:00:27.541Z,6.08
2019-03-24T06:01:27.418Z,6.11
2019-03-24T06:02:27.417Z,6.09
2019-03-24T06:03:27.749Z,6.11
2019-03-24T06:04:27.385Z,6.12
2019-03-24T06:05:27.403Z,6.19
2019-03-24T06:06:27.453Z,6.20
2019-03-24T06:07:27.354Z,6.17
2019-03-24T06:08:27.418Z,6.22
2019-03-24T06:09:27.431Z,6.20
2019-03-24T06:10:27.325Z,6.22
2019-03-24T06:11:27.311Z,6.28
2019-03-24T06:12:27.308Z,6.26
2019-03-24T06:13:27.318Z,6.28
2019-03-24T06:14:27.278Z,6.27
2019-03-24T06:15:28.248Z,6.30
2019-03-24T06:16:27.337Z,6.33
2019-03-24T06:17:27.245Z,6.30
2019-03-24T06:18:27.350Z,6.38
2019-03-24T06:19:27.300Z,6.42
2019-03-24T06:20:27.217Z,6.36
2019-03-24T06:21:27.204Z,6.36
2019-03-24T06:22:27.209Z,6.46
2019-03-24T06:23:27.206Z,6.41
2019-03-24T06:24:27.173Z,6.46
2019-03-24T06:25:27.262Z,6.49
2019-03-24T06:26:27.376Z,6.49
2019-03-24T06:27:27.148Z,6.64
2019-03-24T06:28:27.138Z,6.56
2019-03-24T06:29:27.121Z,6.64
2019-03-24T06:30:27.121Z,6.64
2019-03-24T06:31:27.110Z,6.67
2019-03-24T06:32:27.104Z,6.66
2019-03-24T06:33:27.076Z,6.69
2019-03-24T06:34:27.069Z,6.72
2019-03-24T06:35:27.237Z,6.81
2019-03-24T06:36:27.042Z,6.77
2019-03-24T06:37:27.033Z,6.77
2019-03-24T06:38:27.028Z,6.82
2019-03-24T06:39:27.060Z,6.82
2019-03-24T06:40:27.008Z,6.95
2019-03-24T06:41:27.208Z,6.82
2019-03-24T06:42:27.375Z,6.87
2019-03-24T06:43:27.092Z,7.02
2019-03-24T06:44:27.232Z,6.99
2019-03-24T06:45:28.692Z,7.00
2019-03-24T06:46:27.045Z,7.05
2019-03-24T06:47:27.130Z,7.10
2019-03-24T06:48:26.915Z,7.11
2019-03-24T06:49:26.962Z,7.15
2019-03-24T06:50:26.939Z,7.20
2019-03-24T06:51:26.912Z,7.24
2019-03-24T06:52:26.905Z,7.29
2019-03-24T06:53:26.907Z,7.31
2019-03-24T06:54:26.858Z,7.33
2019-03-24T06:55:26.841Z,7.33
2019-03-24T06:56:26.830Z,7.38
2019-03-24T06:57:26.833Z,7.40
2019-03-24T06:58:26.813Z,7.47
2019-03-24T06:59:27.088Z,7.45
2019-03-24T07:00:26.787Z,7.53
2019-03-24T07:01:26.779Z,7.56
2019-03-24T07:02:26.764Z,7.69
2019-03-24T07:03:26.766Z,7.58
2019-03-24T07:04:26.825Z,7.70
2019-03-24T07:05:26.743Z,7.73
2019-03-24T07:06:26.772Z,7.69
2019-03-24T07:07:26.715Z,7.79
2019-03-24T07:08:26.732Z,7.85
2019-03-24T07:09:26.696Z,7.85
2019-03-24T07:10:26.684Z,7.87
2019-03-24T07:11:26.679Z,7.93
2019-03-24T07:12:26.664Z,8.01
2019-03-24T07:13:26.837Z,7.97
2019-03-24T07:14:26.652Z,8.10
2019-03-24T07:15:26.631Z,8.12
2019-03-24T07:16:26.627Z,8.19
2019-03-24T07:17:26.609Z,8.18
2019-03-24T07:18:26.597Z,8.30
2019-03-24T07:19:26.600Z,8.30
2019-03-24T07:20:26.579Z,8.31
2019-03-24T07:21:26.570Z,8.37
2019-03-24T07:22:26.560Z,8.38
2019-03-24T07:23:26.558Z,8.41
2019-03-24T07:24:26.616Z,8.46
2019-03-24T07:25:26.524Z,8.58
2019-03-24T07:26:26.523Z,8.56
2019-03-24T07:27:26.501Z,8.63
2019-03-24T07:28:26.603Z,8.66
2019-03-24T07:29:26.484Z,8.73
2019-03-24T07:30:26.484Z,8.76
2019-03-24T07:31:26.461Z,8.71
2019-03-24T07:32:26.469Z,8.85
2019-03-24T07:33:26.451Z,8.85
2019-03-24T07:34:26.446Z,8.94
2019-03-24T07:35:26.437Z,8.99
2019-03-24T07:36:26.414Z,9.02
2019-03-24T07:37:26.408Z,9.04
2019-03-24T07:38:26.391Z,9.16
2019-03-24T07:39:26.384Z,9.14
2019-03-24T07:40:26.373Z,9.19
2019-03-24T07:41:26.400Z,9.25
2019-03-24T07:42:26.360Z,9.25
2019-03-24T07:43:26.438Z,9.23
2019-03-24T07:44:26.342Z,9.37
2019-03-24T07:45:29.234Z,9.36
2019-03-24T07:46:26.307Z,9.43
2019-03-24T07:47:26.291Z,9.41
2019-03-24T07:48:26.282Z,9.46
2019-03-24T07:49:26.283Z,9.51
2019-03-24T07:50:26.646Z,9.59
2019-03-24T07:51:26.257Z,9.65
2019-03-24T07:52:26.235Z,9.69
2019-03-24T07:53:26.228Z,9.74
2019-03-24T07:54:26.325Z,9.86
2019-03-24T07:55:26.223Z,9.89
2019-03-24T07:56:26.240Z,9.98
2019-03-24T07:57:26.209Z,10.02
2019-03-24T07:58:26.171Z,10.09
2019-03-24T07:59:26.159Z,10.22
2019-03-24T08:00:26.165Z,10.19
2019-03-24T08:01:26.139Z,10.31
2019-03-24T08:02:26.129Z,10.48
2019-03-24T08:03:26.170Z,10.53
2019-03-24T08:04:26.100Z,10.59
2019-03-24T08:05:26.132Z,10.64
2019-03-24T08:06:26.085Z,10.68
2019-03-24T08:07:26.067Z,10.72
2019-03-24T08:08:26.060Z,10.90
2019-03-24T08:09:26.044Z,10.97
2019-03-24T08:10:26.037Z,11.00
2019-03-24T08:11:26.030Z,11.14
2019-03-24T08:12:26.060Z,11.19
2019-03-24T08:13:26.005Z,11.32
2019-03-24T08:14:26.036Z,11.36
2019-03-24T08:15:25.990Z,11.36
2019-03-24T08:16:25.968Z,11.55
2019-03-24T08:17:25.963Z,11.55
2019-03-24T08:18:30.098Z,11.77
2019-03-24T08:19:26.236Z,11.80
2019-03-24T08:20:25.938Z,11.86
2019-03-24T08:21:25.920Z,11.97
2019-03-24T08:22:25.956Z,12.06
2019-03-24T08:23:25.913Z,12.15
2019-03-24T08:24:25.883Z,12.22
2019-03-24T08:25:25.890Z,12.31
2019-03-24T08:26:25.896Z,12.32
2019-03-24T08:27:25.852Z,12.42
2019-03-24T08:28:25.848Z,12.55
2019-03-24T08:29:25.833Z,12.65
2019-03-24T08:30:25.825Z,12.64
2019-03-24T08:31:25.819Z,12.78
2019-03-24T08:32:25.798Z,12.82
2019-03-24T08:33:25.790Z,12.95
2019-03-24T08:34:25.790Z,12.97
2019-03-24T08:35:25.770Z,13.11
2019-03-24T08:36:25.763Z,13.19
2019-03-24T08:37:25.746Z,13.33
2019-03-24T08:38:26.391Z,13.35
2019-03-24T08:39:25.732Z,13.44
2019-03-24T08:40:25.712Z,13.57
2019-03-24T08:41:25.723Z,13.54
2019-03-24T08:42:25.689Z,13.63
2019-03-24T08:43:25.678Z,13.78
2019-03-24T08:44:25.673Z,13.77
2019-03-24T08:45:25.661Z,13.79
2019-03-24T08:46:25.662Z,13.87
2019-03-24T08:47:25.638Z,13.90
2019-03-24T08:48:25.864Z,13.95
2019-03-24T08:49:25.632Z,13.96
2019-03-24T08:50:25.604Z,13.96
2019-03-24T08:51:25.604Z,14.08
2019-03-24T08:52:25.586Z,14.08
2019-03-24T08:53:25.570Z,14.15
2019-03-24T08:54:25.571Z,14.14
2019-03-24T08:55:25.561Z,14.15
2019-03-24T08:56:25.585Z,14.25
2019-03-24T08:57:25.560Z,14.32
2019-03-24T08:58:25.519Z,14.28
2019-03-24T08:59:25.511Z,14.32
2019-03-24T09:00:30.537Z,14.40
2019-03-24T09:01:26.500Z,14.43
2019-03-24T09:02:25.480Z,14.40
2019-03-24T09:03:25.527Z,14.54
2019-03-24T09:04:25.467Z,14.54
2019-03-24T09:05:25.520Z,14.54
2019-03-24T09:06:25.490Z,14.59
2019-03-24T09:07:25.470Z,14.59
2019-03-24T09:08:25.407Z,14.69
2019-03-24T09:09:25.411Z,14.73
2019-03-24T09:10:25.392Z,14.73
2019-03-24T09:11:31.145Z,14.82
2019-03-24T09:12:26.369Z,14.84
2019-03-24T09:13:25.361Z,14.85
2019-03-24T09:14:25.345Z,14.91
2019-03-24T09:15:25.349Z,14.96
2019-03-24T09:16:25.335Z,15.09
2019-03-24T09:17:25.424Z,15.09
2019-03-24T09:18:25.302Z,15.09
2019-03-24T09:19:25.294Z,15.21
2019-03-24T09:20:25.280Z,15.29
2019-03-24T09:21:25.283Z,15.39
2019-03-24T09:22:25.262Z,15.42
2019-03-24T09:23:25.263Z,15.57
2019-03-24T09:24:25.240Z,15.52
2019-03-24T09:25:25.338Z,15.65
2019-03-24T09:26:25.232Z,15.83
2019-03-24T09:27:25.208Z,15.79
2019-03-24T09:28:25.199Z,15.95
2019-03-24T09:29:25.193Z,16.10
2019-03-24T09:30:25.179Z,16.20
2019-03-24T09:31:25.178Z,16.29
2019-03-24T09:32:25.154Z,16.41
2019-03-24T09:33:25.145Z,16.56
2019-03-24T09:34:25.142Z,16.58
2019-03-24T09:35:25.124Z,16.64
2019-03-24T09:36:25.140Z,16.81
2019-03-24T09:37:25.134Z,16.96
2019-03-24T09:38:25.454Z,16.97
2019-03-24T09:39:25.096Z,17.14
2019-03-24T09:40:25.112Z,17.24
2019-03-24T09:41:25.070Z,17.20
2019-03-24T09:42:25.050Z,17.24
2019-03-24T09:43:25.037Z,17.46
2019-03-24T09:44:25.045Z,17.54
2019-03-24T09:45:25.018Z,17.68
2019-03-24T09:46:25.118Z,17.72
2019-03-24T09:47:24.994Z,17.87
2019-03-24T09:48:24.986Z,18.03
2019-03-24T09:49:24.976Z,18.15
2019-03-24T09:50:24.965Z,18.28
2019-03-24T09:51:25.005Z,18.37
2019-03-24T09:52:24.939Z,18.35
2019-03-24T09:53:24.930Z,18.52
2019-03-24T09:54:24.932Z,18.60
2019-03-24T09:55:24.911Z,18.56
2019-03-24T09:56:24.897Z,18.66
2019-03-24T09:57:24.888Z,18.75
2019-03-24T09:58:24.876Z,18.84
2019-03-24T09:59:24.865Z,18.93
2019-03-24T10:00:24.854Z,18.96
2019-03-24T10:01:24.844Z,19.09
2019-03-24T10:02:24.873Z,19.16
2019-03-24T10:03:24.822Z,19.18
2019-03-24T10:04:24.813Z,19.22
2019-03-24T10:05:24.810Z,19.26
2019-03-24T10:06:24.817Z,19.34
2019-03-24T10:07:24.788Z,19.41
2019-03-24T10:08:24.773Z,19.52
2019-03-24T10:09:24.785Z,19.62
2019-03-24T10:10:24.751Z,19.66
2019-03-24T10:11:24.745Z,19.77
2019-03-24T10:12:24.741Z,19.88
2019-03-24T10:13:24.717Z,19.88
2019-03-24T10:14:24.709Z,20.09
2019-03-24T10:15:24.787Z,20.82
2019-03-24T10:16:24.731Z,20.96
2019-03-24T10:17:24.691Z,21.07
2019-03-24T10:18:24.680Z,21.35
2019-03-24T10:19:24.667Z,21.43
2019-03-24T10:20:24.657Z,21.33
2019-03-24T10:21:24.747Z,21.30
2019-03-24T10:22:24.629Z,21.17
2019-03-24T10:23:24.613Z,20.93
2019-03-24T10:24:24.608Z,20.85
2019-03-24T10:25:24.602Z,20.82
2019-03-24T10:26:24.583Z,20.66
2019-03-24T10:27:24.578Z,20.39
2019-03-24T10:28:24.567Z,20.11
2019-03-24T10:29:24.580Z,19.74
2019-03-24T10:30:24.562Z,19.71
2019-03-24T10:31:24.538Z,19.69
2019-03-24T10:32:24.517Z,19.66
2019-03-24T10:33:24.511Z,19.51
2019-03-24T10:34:24.497Z,19.41
2019-03-24T10:35:24.507Z,19.41
2019-03-24T10:36:24.504Z,19.49
2019-03-24T10:37:24.497Z,19.49
2019-03-24T10:38:24.473Z,19.58
2019-03-24T10:39:24.448Z,19.70
2019-03-24T10:40:28.894Z,19.74
2019-03-24T10:41:24.422Z,19.91
2019-03-24T10:42:24.417Z,20.03
2019-03-24T10:43:24.399Z,20.19
2019-03-24T10:44:24.449Z,20.39
2019-03-24T10:45:24.436Z,20.58
2019-03-24T10:46:24.391Z,20.77
2019-03-24T10:47:24.399Z,20.92
2019-03-24T10:48:33.353Z,21.05
2019-03-24T10:49:25.486Z,21.18
2019-03-24T10:50:24.365Z,21.33
2019-03-24T10:51:24.463Z,21.45
2019-03-24T10:52:24.317Z,21.70
2019-03-24T10:53:24.303Z,21.69
2019-03-24T10:54:24.282Z,21.93
2019-03-24T10:55:24.318Z,22.11
2019-03-24T10:56:24.279Z,22.36
2019-03-24T10:57:24.282Z,22.45
2019-03-24T10:58:24.382Z,22.57
2019-03-24T10:59:24.249Z,22.66
2019-03-24T11:00:24.234Z,22.63
2019-03-24T11:01:24.212Z,22.66
2019-03-24T11:02:24.325Z,22.78
2019-03-24T11:03:24.194Z,22.91
2019-03-24T11:04:24.182Z,22.88
2019-03-24T11:05:24.168Z,22.88
2019-03-24T11:06:24.155Z,23.08
2019-03-24T11:07:24.157Z,23.32
2019-03-24T11:08:24.140Z,23.55
2019-03-24T11:09:24.128Z,23.76
2019-03-24T11:10:24.124Z,24.10
2019-03-24T11:11:24.124Z,24.24
2019-03-24T11:12:24.108Z,24.45
2019-03-24T11:13:24.101Z,24.63
2019-03-24T11:14:24.078Z,24.81
2019-03-24T11:15:24.127Z,25.01
2019-03-24T11:16:24.061Z,25.18
2019-03-24T11:17:24.114Z,25.38
2019-03-24T11:18:24.103Z,25.60
2019-03-24T11:19:34.885Z,25.83
2019-03-24T11:20:25.013Z,25.96
2019-03-24T11:21:24.006Z,26.22
2019-03-24T11:22:23.998Z,26.48
2019-03-24T11:23:23.992Z,26.68
2019-03-24T11:24:23.971Z,26.77
2019-03-24T11:25:23.963Z,27.00
2019-03-24T11:26:23.955Z,27.12
2019-03-24T11:27:23.977Z,27.25
2019-03-24T11:28:23.933Z,27.17
2019-03-24T11:29:23.922Z,27.33
2019-03-24T11:30:23.910Z,27.54
2019-03-24T11:31:23.902Z,27.54
2019-03-24T11:32:23.905Z,27.55
2019-03-24T11:33:23.878Z,27.51
2019-03-24T11:34:24.008Z,27.45
2019-03-24T11:35:23.854Z,27.45
2019-03-24T11:36:23.843Z,27.55
2019-03-24T11:37:23.842Z,27.55
2019-03-24T11:38:23.841Z,27.68
2019-03-24T11:39:23.817Z,27.63
2019-03-24T11:40:23.824Z,27.54
2019-03-24T11:41:23.817Z,27.70
2019-03-24T11:42:23.785Z,27.87
2019-03-24T11:43:23.776Z,27.95
2019-03-24T11:44:23.764Z,28.02
2019-03-24T11:45:23.765Z,28.26
2019-03-24T11:46:23.750Z,28.41
2019-03-24T11:47:26.935Z,28.49
2019-03-24T11:48:23.740Z,28.41
2019-03-24T11:49:23.718Z,28.25
2019-03-24T11:50:23.705Z,28.23
2019-03-24T11:51:23.740Z,28.12
2019-03-24T11:52:23.682Z,27.85
2019-03-24T11:53:23.674Z,27.74
2019-03-24T11:54:23.664Z,27.63
2019-03-24T11:55:23.656Z,27.58
2019-03-24T11:56:23.666Z,27.33
2019-03-24T11:57:23.635Z,27.08
2019-03-24T11:58:23.630Z,26.34
2019-03-24T11:59:23.630Z,25.36
2019-03-24T12:00:23.610Z,24.50
2019-03-24T12:01:23.595Z,24.06
2019-03-24T12:02:23.585Z,24.03
2019-03-24T12:03:25.460Z,24.40
2019-03-24T12:04:23.569Z,24.89
2019-03-24T12:05:23.552Z,25.40
2019-03-24T12:06:23.543Z,25.60
2019-03-24T12:07:23.564Z,25.96
2019-03-24T12:08:23.553Z,26.41
2019-03-24T12:09:23.526Z,26.74
2019-03-24T12:10:23.523Z,26.90
2019-03-24T12:11:23.531Z,27.03
2019-03-24T12:12:23.478Z,27.08
2019-03-24T12:13:23.530Z,27.17
2019-03-24T12:14:23.466Z,27.22
2019-03-24T12:15:23.448Z,27.47
2019-03-24T12:16:23.436Z,27.36
2019-03-24T12:17:23.429Z,27.20
2019-03-24T12:18:23.507Z,27.14
2019-03-24T12:19:23.421Z,27.17
2019-03-24T12:20:23.393Z,26.92
2019-03-24T12:21:23.389Z,26.63
2019-03-24T12:22:23.374Z,26.38
2019-03-24T12:23:23.365Z,26.29
2019-03-24T12:24:23.359Z,26.31
2019-03-24T12:25:23.394Z,26.37
2019-03-24T12:26:23.330Z,26.09
2019-03-24T12:27:23.335Z,25.72
2019-03-24T12:28:23.322Z,25.51
2019-03-24T12:29:23.357Z,25.54
2019-03-24T12:30:23.292Z,25.44
2019-03-24T12:31:23.279Z,25.33
2019-03-24T12:32:24.253Z,25.33
2019-03-24T12:33:23.274Z,25.31
2019-03-24T12:34:23.262Z,25.32
2019-03-24T12:35:23.240Z,25.26
2019-03-24T12:36:23.237Z,25.23
2019-03-24T12:37:23.230Z,25.21
2019-03-24T12:38:23.236Z,25.04
2019-03-24T12:39:23.287Z,24.86
2019-03-24T12:40:23.194Z,24.61
2019-03-24T12:41:23.229Z,24.47
2019-03-24T12:42:23.185Z,24.33
2019-03-24T12:43:23.165Z,24.16
2019-03-24T12:44:23.176Z,24.16
2019-03-24T12:45:23.147Z,24.03
2019-03-24T12:46:23.135Z,23.56
2019-03-24T12:47:23.123Z,23.37
2019-03-24T12:48:23.201Z,23.28
2019-03-24T12:49:23.188Z,23.17
2019-03-24T12:50:31.436Z,23.10
2019-03-24T12:51:24.084Z,22.96
2019-03-24T12:52:23.072Z,22.91
2019-03-24T12:53:23.063Z,22.88
2019-03-24T12:54:25.349Z,22.83
2019-03-24T12:55:23.046Z,22.83
2019-03-24T12:56:23.031Z,22.65
2019-03-24T12:57:23.029Z,22.59
2019-03-24T12:58:23.024Z,22.30
2019-03-24T12:59:23.020Z,22.29
2019-03-24T13:00:23.005Z,22.29
2019-03-24T13:01:23.037Z,22.14
2019-03-24T13:02:22.969Z,22.11
2019-03-24T13:03:22.966Z,22.11
2019-03-24T13:04:22.952Z,22.14
2019-03-24T13:05:22.957Z,22.17
2019-03-24T13:06:22.944Z,22.13
2019-03-24T13:07:22.918Z,22.00
2019-03-24T13:08:22.925Z,22.06